createdAt,value
2023-02-11T00:00:17.872Z,101789.91
2023-02-11T00:00:49.947Z,101780.28
2023-02-11T00:01:29.431Z,101784.69
2023-02-11T00:02:01.350Z,101788.19
2023-02-11T00:02:33.591Z,101783.78
2023-02-11T00:03:05.528Z,101781.16
2023-02-11T00:03:37.537Z,101777.66
2023-02-11T00:04:09.377Z,101780.34
2023-02-11T00:04:41.293Z,101782.97
2023-02-11T00:05:13.267Z,101776.84
2023-02-11T00:05:45.105Z,101783.03
2023-02-11T00:06:16.989Z,101771.59
2023-02-11T00:06:48.835Z,101780.41
2023-02-11T00:07:20.668Z,101776.00
2023-02-11T00:07:52.448Z,101778.63
2023-02-11T00:08:24.260Z,101774.25
2023-02-11T00:08:56.247Z,101780.38
2023-02-11T00:09:30.317Z,101773.38
2023-02-11T00:10:04.365Z,101772.34
2023-02-11T00:10:36.201Z,101772.31
2023-02-11T00:11:08.145Z,101773.16
2023-02-11T00:11:39.960Z,101770.56
2023-02-11T00:12:11.769Z,101770.66
2023-02-11T00:12:43.609Z,101773.38
2023-02-11T00:13:15.407Z,101775.94
2023-02-11T00:13:47.285Z,101773.28
2023-02-11T00:14:19.084Z,101775.03
2023-02-11T00:14:50.931Z,101775.09
2023-02-11T00:15:22.905Z,101778.56
2023-02-11T00:15:54.905Z,101770.78
2023-02-11T00:16:27.025Z,101775.16
2023-02-11T00:16:58.872Z,101775.22
2023-02-11T00:17:30.697Z,101770.84
2023-02-11T00:18:02.584Z,101773.47
2023-02-11T00:18:34.445Z,101764.78
2023-02-11T00:19:06.778Z,101778.81
2023-02-11T00:19:38.575Z,101775.31
2023-02-11T00:20:10.665Z,101774.44
2023-02-11T00:20:42.637Z,101763.13
2023-02-11T00:21:19.122Z,101767.47
2023-02-11T00:21:50.908Z,101766.56
2023-02-11T00:22:22.810Z,101763.09
2023-02-11T00:22:54.631Z,101764.84
2023-02-11T00:23:26.420Z,101770.97
2023-02-11T00:23:59.882Z,101769.13
2023-02-11T00:24:31.907Z,101770.00
2023-02-11T00:25:03.804Z,101760.28
2023-02-11T00:25:43.282Z,101770.75
2023-02-11T00:26:25.780Z,101765.47
2023-02-11T00:26:57.710Z,101763.72
2023-02-11T00:27:29.507Z,101762.81
2023-02-11T00:28:01.365Z,101759.38
2023-02-11T00:28:33.240Z,101761.22
2023-02-11T00:29:05.606Z,101766.38
2023-02-11T00:29:38.204Z,101772.47
2023-02-11T00:30:11.087Z,101763.63
2023-02-11T00:30:43.032Z,101761.88
2023-02-11T00:31:15.320Z,101760.13
2023-02-11T00:31:47.378Z,101766.31
2023-02-11T00:32:19.309Z,101765.44
2023-02-11T00:32:51.099Z,101761.97
2023-02-11T00:33:22.974Z,101766.28
2023-02-11T00:33:54.892Z,101767.13
2023-02-11T00:34:26.750Z,101757.59
2023-02-11T00:34:58.697Z,101756.75
2023-02-11T00:35:30.475Z,101762.84
2023-02-11T00:36:13.826Z,101765.47
2023-02-11T00:36:45.665Z,101763.75
2023-02-11T00:37:17.458Z,101756.81
2023-02-11T00:37:49.301Z,101764.63
2023-02-11T00:38:21.082Z,101761.03
2023-02-11T00:38:53.824Z,101763.66
2023-02-11T00:39:25.599Z,101763.63
2023-02-11T00:39:57.354Z,101762.75
2023-02-11T00:40:29.129Z,101769.75
2023-02-11T00:41:00.995Z,101766.25
2023-02-11T00:41:32.870Z,101761.84
2023-02-11T00:42:04.836Z,101760.13
2023-02-11T00:42:37.460Z,101768.94
2023-02-11T00:43:09.330Z,101763.81
2023-02-11T00:43:41.929Z,101763.88
2023-02-11T00:44:13.753Z,101763.94
2023-02-11T00:44:45.663Z,101759.56
2023-02-11T00:45:17.657Z,101768.31
2023-02-11T00:45:49.805Z,101769.25
2023-02-11T00:46:21.979Z,101764.84
2023-02-11T00:46:53.907Z,101763.97
2023-02-11T00:47:25.788Z,101763.94
2023-02-11T00:47:57.710Z,101766.63
2023-02-11T00:48:29.574Z,101757.84
2023-02-11T00:49:01.447Z,101766.59
2023-02-11T00:49:33.361Z,101760.41
2023-02-11T00:50:05.625Z,101765.59
2023-02-11T00:50:37.441Z,101766.44
2023-02-11T00:51:09.311Z,101768.22
2023-02-11T00:51:41.190Z,101758.59
2023-02-11T00:52:13.036Z,101769.94
2023-02-11T00:52:44.911Z,101767.28
2023-02-11T00:53:16.716Z,101764.59
2023-02-11T00:53:48.576Z,101768.94
2023-02-11T00:54:20.448Z,101764.53
2023-02-11T00:54:52.238Z,101764.50
2023-02-11T00:55:24.029Z,101762.75
2023-02-11T00:55:55.911Z,101764.50
2023-02-11T00:56:27.712Z,101766.38
2023-02-11T00:56:59.509Z,101770.75
2023-02-11T00:57:31.350Z,101766.44
2023-02-11T00:58:03.213Z,101765.59
2023-02-11T00:58:35.353Z,101771.69
2023-02-11T00:59:07.212Z,101772.50
2023-02-11T00:59:39.091Z,101773.34
2023-02-11T01:00:12.114Z,101767.13
2023-02-11T01:00:43.971Z,101770.63
2023-02-11T01:01:15.881Z,101758.38
2023-02-11T01:01:47.779Z,101761.81
2023-02-11T01:02:19.697Z,101758.34
2023-02-11T01:02:51.484Z,101761.00
2023-02-11T01:03:23.348Z,101761.09
2023-02-11T01:03:55.134Z,101762.03
2023-02-11T01:04:26.992Z,101753.31
2023-02-11T01:05:00.208Z,101756.78
2023-02-11T01:05:32.247Z,101754.16
2023-02-11T01:06:04.889Z,101755.03
2023-02-11T01:06:36.711Z,101759.34
2023-02-11T01:07:08.657Z,101751.50
2023-02-11T01:07:40.423Z,101750.69
2023-02-11T01:08:12.360Z,101749.81
2023-02-11T01:08:44.163Z,101752.50
2023-02-11T01:09:15.961Z,101750.78
2023-02-11T01:09:47.819Z,101750.81
2023-02-11T01:10:19.704Z,101748.19
2023-02-11T01:11:08.672Z,101744.63
2023-02-11T01:11:40.522Z,101753.44
2023-02-11T01:12:12.307Z,101741.19
2023-02-11T01:12:44.149Z,101743.84
2023-02-11T01:13:15.969Z,101745.63
2023-02-11T01:13:48.363Z,101742.09
2023-02-11T01:14:20.201Z,101741.25
2023-02-11T01:14:52.147Z,101741.34
2023-02-11T01:15:24.076Z,101748.31
2023-02-11T01:15:56.088Z,101737.75
2023-02-11T01:16:28.003Z,101739.56
2023-02-11T01:16:59.841Z,101729.97
2023-02-11T01:17:31.669Z,101736.06
2023-02-11T01:18:05.180Z,101739.59
2023-02-11T01:18:37.141Z,101729.13
2023-02-11T01:19:08.954Z,101736.19
2023-02-11T01:19:40.813Z,101737.03
2023-02-11T01:20:16.740Z,101725.63
2023-02-11T01:20:48.546Z,101727.41
2023-02-11T01:21:20.461Z,101735.31
2023-02-11T01:21:52.260Z,101738.75
2023-02-11T01:22:24.124Z,101730.88
2023-02-11T01:22:56.014Z,101733.44
2023-02-11T01:23:27.842Z,101734.34
2023-02-11T01:23:59.676Z,101725.50
2023-02-11T01:24:31.480Z,101731.69
2023-02-11T01:25:03.671Z,101734.31
2023-02-11T01:25:35.510Z,101727.31
2023-02-11T01:26:07.374Z,101730.81
2023-02-11T01:26:39.275Z,101733.44
2023-02-11T01:27:11.075Z,101736.94
2023-02-11T01:27:42.954Z,101729.00
2023-02-11T01:28:25.074Z,101738.59
2023-02-11T01:28:56.920Z,101728.09
2023-02-11T01:29:28.730Z,101729.94
2023-02-11T01:30:00.544Z,101731.84
2023-02-11T01:30:32.397Z,101736.22
2023-02-11T01:31:04.541Z,101729.28
2023-02-11T01:31:36.543Z,101730.19
2023-02-11T01:32:08.439Z,101735.41
2023-02-11T01:32:40.402Z,101732.78
2023-02-11T01:33:12.236Z,101730.16
2023-02-11T01:33:44.086Z,101733.72
2023-02-11T01:34:16.170Z,101726.69
2023-02-11T01:34:47.936Z,101732.81
2023-02-11T01:35:20.846Z,101717.91
2023-02-11T01:35:53.002Z,101729.31
2023-02-11T01:36:25.191Z,101724.09
2023-02-11T01:36:58.749Z,101724.13
2023-02-11T01:37:32.610Z,101719.81
2023-02-11T01:38:04.441Z,101725.06
2023-02-11T01:38:36.331Z,101723.31
2023-02-11T01:39:11.396Z,101722.38
2023-02-11T01:39:43.226Z,101711.06
2023-02-11T01:40:16.560Z,101725.06
2023-02-11T01:41:01.819Z,101720.69
2023-02-11T01:41:33.746Z,101719.00
2023-02-11T01:42:05.876Z,101717.28
2023-02-11T01:42:37.796Z,101712.97
2023-02-11T01:43:10.859Z,101717.44
2023-02-11T01:43:47.704Z,101718.25
2023-02-11T01:44:23.101Z,101717.34
2023-02-11T01:44:55.938Z,101713.78
2023-02-11T01:45:54.071Z,101715.63
2023-02-11T01:46:38.315Z,101716.47
2023-02-11T01:47:10.334Z,101716.56
2023-02-11T01:47:42.134Z,101716.56
2023-02-11T01:48:16.360Z,101714.78
2023-02-11T01:48:53.361Z,101713.09
2023-02-11T01:49:31.094Z,101704.38
2023-02-11T01:50:04.078Z,101711.34
2023-02-11T01:50:36.135Z,101713.94
2023-02-11T01:51:21.907Z,101713.03
2023-02-11T01:52:04.631Z,101710.44
2023-02-11T01:52:37.647Z,101713.09
2023-02-11T01:53:27.981Z,101712.28
2023-02-11T01:54:35.355Z,101707.09
2023-02-11T01:55:29.140Z,101708.84
2023-02-11T01:56:19.276Z,101702.72
2023-02-11T01:57:10.354Z,101695.69
2023-02-11T01:57:43.680Z,101699.09
2023-02-11T01:58:15.478Z,101692.09
2023-02-11T01:58:47.267Z,101688.69
2023-02-11T01:59:22.796Z,101693.13
2023-02-11T02:00:12.354Z,101689.59
2023-02-11T02:00:44.162Z,101686.06
2023-02-11T02:01:17.663Z,101684.28
2023-02-11T02:01:53.504Z,101684.38
2023-02-11T02:02:43.204Z,101684.31
2023-02-11T02:03:20.215Z,101677.19
2023-02-11T02:03:52.678Z,101679.75
2023-02-11T02:04:27.524Z,101675.34
2023-02-11T02:05:03.759Z,101687.69
2023-02-11T02:05:49.584Z,101680.75
2023-02-11T02:06:33.851Z,101675.53
2023-02-11T02:07:14.503Z,101674.69
2023-02-11T02:08:12.993Z,101668.63
2023-02-11T02:08:50.319Z,101670.34
2023-02-11T02:09:26.922Z,101673.00
2023-02-11T02:10:01.248Z,101664.28
2023-02-11T02:10:33.133Z,101672.19
2023-02-11T02:11:05.012Z,101673.00
2023-02-11T02:11:36.813Z,101670.31
2023-02-11T02:12:08.652Z,101667.75
2023-02-11T02:12:40.437Z,101668.63
2023-02-11T02:13:12.464Z,101670.31
2023-02-11T02:13:44.331Z,101674.69
2023-02-11T02:14:16.137Z,101671.22
2023-02-11T02:14:47.980Z,101673.88
2023-02-11T02:15:25.396Z,101669.50
2023-02-11T02:16:07.881Z,101660.66
2023-02-11T02:16:41.462Z,101670.28
2023-02-11T02:17:34.765Z,101665.09
2023-02-11T02:18:49.047Z,101665.91
2023-02-11T02:19:51.361Z,101660.72
2023-02-11T02:21:08.284Z,101666.94
2023-02-11T02:21:45.883Z,101664.13
2023-02-11T02:22:25.018Z,101664.28
2023-02-11T02:24:20.325Z,101668.63
2023-02-11T02:25:06.890Z,101665.09
2023-02-11T02:26:10.843Z,101662.47
2023-02-11T02:26:54.613Z,101661.66
2023-02-11T02:27:40.634Z,101663.47
2023-02-11T02:28:45.050Z,101658.25
2023-02-11T02:29:22.826Z,101666.16
2023-02-11T02:30:00.108Z,101661.75
2023-02-11T02:30:50.145Z,101663.50
2023-02-11T02:31:52.687Z,101655.66
2023-02-11T02:32:42.689Z,101661.81
2023-02-11T02:33:22.152Z,101659.22
2023-02-11T02:34:29.693Z,101659.19
2023-02-11T02:35:19.548Z,101665.28
2023-02-11T02:36:02.771Z,101663.56
2023-02-11T02:37:00.223Z,101654.78
2023-02-11T02:37:48.935Z,101655.69
2023-02-11T02:39:53.450Z,101649.34
2023-02-11T02:40:37.232Z,101641.50
2023-02-11T02:41:11.341Z,101644.97
2023-02-11T02:41:43.171Z,101644.94
2023-02-11T02:42:14.945Z,101642.34
2023-02-11T02:42:46.972Z,101642.31
2023-02-11T02:43:18.809Z,101644.94
2023-02-11T02:43:51.028Z,101648.44
2023-02-11T02:44:22.908Z,101646.69
2023-02-11T02:44:54.732Z,101644.91
2023-02-11T02:45:26.523Z,101644.03
2023-02-11T02:46:11.200Z,101644.16
2023-02-11T02:46:43.020Z,101646.84
2023-02-11T02:47:14.922Z,101641.63
2023-02-11T02:47:46.696Z,101639.88
2023-02-11T02:48:32.193Z,101638.97
2023-02-11T02:49:04.189Z,101646.84
2023-02-11T02:49:36.009Z,101641.53
2023-02-11T02:50:08.203Z,101645.88
2023-02-11T02:50:39.984Z,101645.03
2023-02-11T02:51:15.905Z,101648.50
2023-02-11T02:52:24.799Z,101645.94
2023-02-11T02:53:02.476Z,101645.09
2023-02-11T02:54:07.576Z,101644.22
2023-02-11T02:54:53.202Z,101640.72
2023-02-11T02:55:35.668Z,101640.72
2023-02-11T02:56:16.005Z,101641.63
2023-02-11T02:57:04.007Z,101643.34
2023-02-11T02:57:47.795Z,101643.41
2023-02-11T02:58:33.173Z,101643.38
2023-02-11T02:59:13.935Z,101642.47
2023-02-11T03:00:29.925Z,101638.94
2023-02-11T03:01:30.420Z,101638.94
2023-02-11T03:02:25.258Z,101636.34
2023-02-11T03:03:15.478Z,101632.69
2023-02-11T03:03:59.320Z,101638.00
2023-02-11T03:04:53.815Z,101633.56
2023-02-11T03:05:46.946Z,101636.09
2023-02-11T03:06:39.517Z,101631.69
2023-02-11T03:07:37.571Z,101637.88
2023-02-11T03:08:32.831Z,101633.41
2023-02-11T03:09:15.222Z,101629.00
2023-02-11T03:10:00.838Z,101627.41
2023-02-11T03:10:34.682Z,101626.63
2023-02-11T03:11:06.584Z,101628.38
2023-02-11T03:11:38.479Z,101626.69
2023-02-11T03:12:10.334Z,101625.84
2023-02-11T03:12:42.410Z,101631.09
2023-02-11T03:13:17.122Z,101626.75
2023-02-11T03:13:49.012Z,101628.47
2023-02-11T03:14:20.845Z,101629.34
2023-02-11T03:14:52.767Z,101632.00
2023-02-11T03:15:26.305Z,101632.88
2023-02-11T03:15:58.266Z,101627.66
2023-02-11T03:16:30.158Z,101625.94
2023-02-11T03:17:03.135Z,101636.44
2023-02-11T03:17:36.118Z,101632.06
2023-02-11T03:18:09.345Z,101635.53
2023-02-11T03:18:42.725Z,101630.22
2023-02-11T03:19:31.124Z,101633.75
2023-02-11T03:20:04.413Z,101627.56
2023-02-11T03:20:37.143Z,101623.97
2023-02-11T03:21:09.058Z,101616.91
2023-02-11T03:21:41.555Z,101626.53
2023-02-11T03:22:33.871Z,101625.59
2023-02-11T03:23:13.561Z,101623.88
2023-02-11T03:23:54.136Z,101624.81
2023-02-11T03:24:31.094Z,101629.13
2023-02-11T03:25:03.104Z,101623.81
2023-02-11T03:25:37.449Z,101620.31
2023-02-11T03:26:19.808Z,101617.81
2023-02-11T03:26:55.445Z,101622.25
2023-02-11T03:27:47.408Z,101622.34
2023-02-11T03:28:28.154Z,101630.22
2023-02-11T03:29:25.849Z,101627.59
2023-02-11T03:29:57.510Z,101632.84
2023-02-11T03:30:44.358Z,101636.44
2023-02-11T03:31:41.334Z,101631.19
2023-02-11T03:32:35.902Z,101637.16
2023-02-11T03:33:14.283Z,101635.38
2023-02-11T03:34:08.764Z,101627.47
2023-02-11T03:34:48.409Z,101637.13
2023-02-11T03:35:21.913Z,101638.03
2023-02-11T03:36:15.407Z,101626.66
2023-02-11T03:37:15.202Z,101633.66
2023-02-11T03:37:54.596Z,101634.41
2023-02-11T03:38:39.937Z,101630.84
2023-02-11T03:39:14.474Z,101623.81
2023-02-11T03:39:57.758Z,101618.53
2023-02-11T03:40:32.130Z,101626.34
2023-02-11T03:41:04.806Z,101630.72
2023-02-11T03:41:36.655Z,101630.72
2023-02-11T03:42:08.952Z,101628.94
2023-02-11T03:42:47.079Z,101629.78
2023-02-11T03:43:23.214Z,101627.31
2023-02-11T03:43:56.674Z,101634.38
2023-02-11T03:44:30.928Z,101628.22
2023-02-11T03:45:21.758Z,101630.06
2023-02-11T03:45:53.979Z,101626.59
2023-02-11T03:46:33.845Z,101625.81
2023-02-11T03:47:06.133Z,101631.03
2023-02-11T03:47:39.238Z,101622.25
2023-02-11T03:48:24.485Z,101623.88
2023-02-11T03:48:58.899Z,101627.41
2023-02-11T03:49:30.704Z,101621.34
2023-02-11T03:50:04.452Z,101624.88
2023-02-11T03:50:36.334Z,101619.66
2023-02-11T03:51:09.416Z,101625.72
2023-02-11T03:51:41.278Z,101623.06
2023-02-11T03:52:13.148Z,101619.63
2023-02-11T03:52:44.898Z,101626.69
2023-02-11T03:53:16.664Z,101626.63
2023-02-11T03:53:48.455Z,101629.25
2023-02-11T03:54:24.139Z,101629.22
2023-02-11T03:54:56.652Z,101626.59
2023-02-11T03:55:28.634Z,101628.31
2023-02-11T03:56:01.339Z,101622.16
2023-02-11T03:56:35.724Z,101621.31
2023-02-11T03:57:07.681Z,101629.16
2023-02-11T03:57:39.567Z,101625.59
2023-02-11T03:58:11.424Z,101627.31
2023-02-11T03:58:45.507Z,101626.38
2023-02-11T03:59:17.413Z,101632.56
2023-02-11T03:59:58.867Z,101627.34
2023-02-11T04:00:39.689Z,101630.91
2023-02-11T04:01:11.568Z,101628.38
2023-02-11T04:01:43.402Z,101628.47
2023-02-11T04:02:15.274Z,101632.75
2023-02-11T04:02:47.186Z,101625.78
2023-02-11T04:03:19.234Z,101629.34
2023-02-11T04:03:51.090Z,101631.09
2023-02-11T04:04:22.892Z,101623.13
2023-02-11T04:04:54.981Z,101629.16
2023-02-11T04:05:26.765Z,101626.53
2023-02-11T04:05:58.547Z,101624.00
2023-02-11T04:06:30.342Z,101630.94
2023-02-11T04:07:02.137Z,101626.50
2023-02-11T04:07:33.973Z,101620.28
2023-02-11T04:08:05.960Z,101615.03
2023-02-11T04:08:37.808Z,101621.09
2023-02-11T04:09:10.125Z,101620.22
2023-02-11T04:09:41.972Z,101615.84
2023-02-11T04:10:13.812Z,101610.59
2023-02-11T04:10:45.629Z,101612.31
2023-02-11T04:11:17.475Z,101616.72
2023-02-11T04:11:49.354Z,101613.22
2023-02-11T04:12:21.267Z,101616.75
2023-02-11T04:12:53.071Z,101608.91
2023-02-11T04:13:24.964Z,101605.38
2023-02-11T04:13:56.789Z,101608.84
2023-02-11T04:14:29.176Z,101606.28
2023-02-11T04:15:00.950Z,101605.31
2023-02-11T04:15:32.963Z,101612.31
2023-02-11T04:16:04.956Z,101615.91
2023-02-11T04:16:36.874Z,101612.44
2023-02-11T04:17:08.754Z,101613.31
2023-02-11T04:17:40.565Z,101605.53
2023-02-11T04:18:12.388Z,101608.22
2023-02-11T04:18:44.193Z,101608.22
2023-02-11T04:19:16.041Z,101609.97
2023-02-11T04:19:47.877Z,101614.31
2023-02-11T04:20:19.819Z,101608.25
2023-02-11T04:20:51.653Z,101612.63
2023-02-11T04:21:23.455Z,101610.91
2023-02-11T04:21:55.302Z,101606.53
2023-02-11T04:22:27.181Z,101612.69
2023-02-11T04:22:58.988Z,101605.69
2023-02-11T04:23:30.810Z,101610.06
2023-02-11T04:24:02.685Z,101610.94
2023-02-11T04:24:34.763Z,101610.13
2023-02-11T04:25:06.946Z,101613.63
2023-02-11T04:25:38.796Z,101616.28
2023-02-11T04:26:10.645Z,101613.63
2023-02-11T04:26:42.782Z,101611.94
2023-02-11T04:27:14.644Z,101608.41
2023-02-11T04:27:46.446Z,101611.06
2023-02-11T04:28:18.275Z,101613.66
2023-02-11T04:28:50.078Z,101614.56
2023-02-11T04:29:21.995Z,101614.56
2023-02-11T04:29:54.363Z,101610.19
2023-02-11T04:30:26.220Z,101616.31
2023-02-11T04:30:58.093Z,101611.06
2023-02-11T04:31:29.953Z,101614.53
2023-02-11T04:32:01.831Z,101609.31
2023-02-11T04:32:33.630Z,101610.19
2023-02-11T04:33:05.455Z,101611.97
2023-02-11T04:33:37.228Z,101605.81
2023-02-11T04:34:09.027Z,101608.44
2023-02-11T04:34:40.867Z,101606.72
2023-02-11T04:35:12.690Z,101613.72
2023-02-11T04:35:44.479Z,101611.97
2023-02-11T04:36:16.263Z,101610.25
2023-02-11T04:36:48.088Z,101605.03
2023-02-11T04:37:19.986Z,101617.28
2023-02-11T04:37:51.798Z,101611.94
2023-02-11T04:38:26.576Z,101610.16
2023-02-11T04:38:58.412Z,101610.94
2023-02-11T04:39:30.188Z,101610.00
2023-02-11T04:40:02.052Z,101603.84
2023-02-11T04:40:33.881Z,101598.66
2023-02-11T04:41:05.753Z,101605.66
2023-02-11T04:41:37.537Z,101607.34
2023-02-11T04:42:09.311Z,101603.88
2023-02-11T04:42:41.080Z,101599.44
2023-02-11T04:43:12.906Z,101608.16
2023-02-11T04:43:44.686Z,101607.44
2023-02-11T04:44:16.667Z,101596.09
2023-02-11T04:44:48.489Z,101598.66
2023-02-11T04:45:20.390Z,101598.63
2023-02-11T04:45:52.554Z,101598.63
2023-02-11T04:46:24.707Z,101599.53
2023-02-11T04:46:56.525Z,101594.31
2023-02-11T04:47:28.369Z,101592.59
2023-02-11T04:48:01.445Z,101593.50
2023-02-11T04:48:34.920Z,101596.19
2023-02-11T04:49:06.728Z,101596.19
2023-02-11T04:49:38.502Z,101597.88
2023-02-11T04:50:10.381Z,101594.38
2023-02-11T04:50:42.217Z,101590.84
2023-02-11T04:51:14.043Z,101593.41
2023-02-11T04:51:48.908Z,101595.22
2023-02-11T04:52:21.140Z,101592.63
2023-02-11T04:52:52.954Z,101595.25
2023-02-11T04:53:24.751Z,101589.13
2023-02-11T04:53:56.571Z,101595.28
2023-02-11T04:54:28.414Z,101592.66
2023-02-11T04:55:00.851Z,101582.19
2023-02-11T04:55:32.632Z,101592.69
2023-02-11T04:56:04.675Z,101585.59
2023-02-11T04:56:36.583Z,101584.66
2023-02-11T04:57:08.584Z,101582.97
2023-02-11T04:57:40.492Z,101583.84
2023-02-11T04:58:12.317Z,101587.41
2023-02-11T04:58:44.192Z,101588.31
2023-02-11T04:59:16.048Z,101587.41
2023-02-11T04:59:48.966Z,101584.75
2023-02-11T05:00:21.033Z,101583.94
2023-02-11T05:00:52.873Z,101590.09
2023-02-11T05:01:24.777Z,101586.63
2023-02-11T05:01:56.974Z,101590.13
2023-02-11T05:02:28.762Z,101583.94
2023-02-11T05:03:00.548Z,101582.19
2023-02-11T05:03:32.360Z,101579.56
2023-02-11T05:04:04.409Z,101587.50
2023-02-11T05:04:36.218Z,101584.03
2023-02-11T05:05:08.711Z,101584.91
2023-02-11T05:05:43.293Z,101578.78
2023-02-11T05:06:15.122Z,101581.44
2023-02-11T05:06:46.956Z,101580.53
2023-02-11T05:07:18.790Z,101578.75
2023-02-11T05:07:50.636Z,101582.19
2023-02-11T05:08:22.466Z,101581.31
2023-02-11T05:08:54.305Z,101580.50
2023-02-11T05:09:26.075Z,101578.75
2023-02-11T05:09:57.876Z,101586.56
2023-02-11T05:10:29.733Z,101574.31
2023-02-11T05:11:02.369Z,101577.00
2023-02-11T05:11:34.154Z,101580.50
2023-02-11T05:12:06.166Z,101577.91
2023-02-11T05:12:37.962Z,101580.53
2023-02-11T05:13:09.736Z,101572.59
2023-02-11T05:13:41.556Z,101576.00
2023-02-11T05:14:13.343Z,101581.22
2023-02-11T05:14:45.097Z,101582.97
2023-02-11T05:15:17.136Z,101585.56
2023-02-11T05:15:49.200Z,101582.03
2023-02-11T05:16:21.339Z,101577.63
2023-02-11T05:16:53.310Z,101583.75
2023-02-11T05:17:25.159Z,101582.97
2023-02-11T05:17:56.969Z,101589.13
2023-02-11T05:18:28.783Z,101582.19
2023-02-11T05:19:00.768Z,101584.84
2023-02-11T05:19:32.713Z,101590.09
2023-02-11T05:20:04.842Z,101583.09
2023-02-11T05:20:39.031Z,101588.25
2023-02-11T05:21:12.663Z,101588.25
2023-02-11T05:22:00.227Z,101585.69
2023-02-11T05:22:33.748Z,101590.94
2023-02-11T05:23:05.585Z,101590.06
2023-02-11T05:23:37.513Z,101592.63
2023-02-11T05:24:09.399Z,101588.19
2023-02-11T05:24:41.259Z,101584.66
2023-02-11T05:25:13.102Z,101586.38
2023-02-11T05:25:44.916Z,101586.34
2023-02-11T05:26:16.817Z,101581.09
2023-02-11T05:26:48.679Z,101579.31
2023-02-11T05:27:20.520Z,101582.78
2023-02-11T05:27:52.323Z,101580.19
2023-02-11T05:28:24.184Z,101581.03
2023-02-11T05:28:56.485Z,101578.50
2023-02-11T05:29:28.595Z,101579.34
2023-02-11T05:30:00.410Z,101590.66
2023-02-11T05:30:32.363Z,101582.00
2023-02-11T05:31:04.415Z,101578.50
2023-02-11T05:31:36.210Z,101579.38
2023-02-11T05:32:09.159Z,101582.03
2023-02-11T05:32:41.032Z,101575.09
2023-02-11T05:33:12.823Z,101577.78
2023-02-11T05:33:44.651Z,101576.03
2023-02-11T05:34:16.565Z,101577.72
2023-02-11T05:34:48.422Z,101575.94
2023-02-11T05:35:20.274Z,101581.22
2023-02-11T05:35:52.355Z,101570.72
2023-02-11T05:36:24.276Z,101571.56
2023-02-11T05:36:56.179Z,101577.63
2023-02-11T05:37:28.225Z,101567.13
2023-02-11T05:38:00.059Z,101567.97
2023-02-11T05:38:31.892Z,101575.78
2023-02-11T05:39:03.856Z,101573.13
2023-02-11T05:39:36.060Z,101565.31
2023-02-11T05:40:08.173Z,101565.31
2023-02-11T05:40:40.005Z,101562.69
2023-02-11T05:41:12.048Z,101564.44
2023-02-11T05:41:43.878Z,101564.41
2023-02-11T05:42:15.706Z,101566.13
2023-02-11T05:42:47.492Z,101560.03
2023-02-11T05:43:19.370Z,101564.38
2023-02-11T05:43:51.246Z,101566.97
2023-02-11T05:44:23.154Z,101560.84
2023-02-11T05:44:54.925Z,101562.72
2023-02-11T05:45:26.803Z,101564.56
2023-02-11T05:45:58.746Z,101560.16
2023-02-11T05:46:30.626Z,101558.34
2023-02-11T05:47:02.479Z,101562.81
2023-02-11T05:47:34.465Z,101565.50
2023-02-11T05:48:06.293Z,101561.19
2023-02-11T05:48:38.110Z,101561.22
2023-02-11T05:49:09.987Z,101565.63
2023-02-11T05:49:41.780Z,101557.78
2023-02-11T05:50:13.599Z,101561.31
2023-02-11T05:50:45.626Z,101560.44
2023-02-11T05:51:17.450Z,101561.22
2023-02-11T05:51:49.270Z,101561.16
2023-02-11T05:52:21.896Z,101560.31
2023-02-11T05:52:53.673Z,101567.34
2023-02-11T05:53:25.845Z,101566.38
2023-02-11T05:53:57.695Z,101561.91
2023-02-11T05:54:29.570Z,101566.25
2023-02-11T05:55:01.674Z,101566.28
2023-02-11T05:55:33.727Z,101557.53
2023-02-11T05:56:05.990Z,101566.19
2023-02-11T05:56:37.772Z,101555.78
2023-02-11T05:57:09.627Z,101563.59
2023-02-11T05:57:41.460Z,101560.97
2023-02-11T05:58:13.772Z,101560.03
2023-02-11T05:58:45.552Z,101556.44
2023-02-11T05:59:17.317Z,101565.28
2023-02-11T05:59:49.111Z,101563.56
2023-02-11T06:00:20.892Z,101566.22
2023-02-11T06:00:52.768Z,101552.22
2023-02-11T06:01:24.652Z,101561.88
2023-02-11T06:01:56.460Z,101560.19
2023-02-11T06:02:28.924Z,101557.56
2023-02-11T06:03:00.891Z,101563.56
2023-02-11T06:03:32.841Z,101559.22
2023-02-11T06:04:04.690Z,101556.63
2023-02-11T06:04:36.752Z,101558.34
2023-02-11T06:05:08.901Z,101554.78
2023-02-11T06:05:40.742Z,101549.47
2023-02-11T06:06:12.749Z,101558.22
2023-02-11T06:06:44.545Z,101566.16
2023-02-11T06:07:17.721Z,101562.63
2023-02-11T06:07:49.568Z,101552.81
2023-02-11T06:08:21.393Z,101557.13
2023-02-11T06:08:53.216Z,101552.72
2023-02-11T06:09:25.001Z,101560.56
2023-02-11T06:09:56.822Z,101557.03
2023-02-11T06:10:28.727Z,101546.53
2023-02-11T06:11:00.559Z,101551.84
2023-02-11T06:11:32.386Z,101553.56
2023-02-11T06:12:04.422Z,101550.97
2023-02-11T06:12:36.956Z,101557.97
2023-02-11T06:13:08.814Z,101553.47
2023-02-11T06:13:40.615Z,101558.75
2023-02-11T06:14:12.470Z,101554.38
2023-02-11T06:14:44.443Z,101556.19
2023-02-11T06:15:16.300Z,101555.22
2023-02-11T06:15:56.685Z,101556.78
2023-02-11T06:16:28.576Z,101556.69
2023-02-11T06:17:00.795Z,101552.22
2023-02-11T06:17:33.828Z,101553.00
2023-02-11T06:18:05.725Z,101559.91
2023-02-11T06:18:37.609Z,101553.72
2023-02-11T06:19:09.468Z,101550.97
2023-02-11T06:19:41.255Z,101557.97
2023-02-11T06:20:13.572Z,101564.91
2023-02-11T06:20:45.386Z,101560.44
2023-02-11T06:21:17.232Z,101560.31
2023-02-11T06:21:49.010Z,101564.78
2023-02-11T06:22:20.832Z,101558.75
2023-02-11T06:22:52.642Z,101553.41
2023-02-11T06:23:24.492Z,101556.94
2023-02-11T06:23:56.317Z,101563.13
2023-02-11T06:24:50.963Z,101552.66
2023-02-11T06:25:20.005Z,101560.50
2023-02-11T06:25:52.811Z,101567.53
2023-02-11T06:26:24.881Z,101561.34
2023-02-11T06:26:56.662Z,101551.78
2023-02-11T06:27:28.477Z,101558.75
2023-02-11T06:28:00.348Z,101560.47
2023-02-11T06:28:32.794Z,101555.16
2023-02-11T06:29:04.608Z,101559.69
2023-02-11T06:29:36.421Z,101556.03
2023-02-11T06:30:08.970Z,101556.81
2023-02-11T06:30:40.786Z,101557.69
2023-02-11T06:31:12.883Z,101559.41
2023-02-11T06:31:44.821Z,101558.59
2023-02-11T06:32:36.872Z,101561.19
2023-02-11T06:33:09.529Z,101558.53
2023-02-11T06:33:41.368Z,101556.75
2023-02-11T06:34:13.181Z,101556.81
2023-02-11T06:34:45.651Z,101562.13
2023-02-11T06:35:17.501Z,101559.44
2023-02-11T06:35:49.643Z,101558.63
2023-02-11T06:36:22.143Z,101555.03
2023-02-11T06:36:53.982Z,101564.56
2023-02-11T06:37:25.818Z,101560.91
2023-02-11T06:37:57.606Z,101553.97
2023-02-11T06:38:29.423Z,101559.34